Map

Track Data

SID SEASON NUMBER BASIN SUBBASIN NAME ISO_TIME NATURE LAT LON WMO_WIND WMO_PRES WMO_AGENCY TRACK_TYPE DIST2LAND LANDFALL IFLAG USA_AGENCY USA_ATCF_ID USA_LAT USA_LON USA_RECORD USA_STATUS USA_WIND USA_PRES USA_SSHS USA_R34_NE USA_R34_SE USA_R34_SW USA_R34_NW USA_R50_NE USA_R50_SE USA_R50_SW USA_R50_NW USA_R64_NE USA_R64_SE USA_R64_SW USA_R64_NW USA_POCI USA_ROCI USA_RMW USA_EYE TOKYO_LAT TOKYO_LON TOKYO_GRADE TOKYO_WIND TOKYO_PRES TOKYO_R50_DIR TOKYO_R50_LONG TOKYO_R50_SHORT TOKYO_R30_DIR TOKYO_R30_LONG TOKYO_R30_SHORT TOKYO_LAND CMA_LAT CMA_LON CMA_CAT CMA_WIND CMA_PRES HKO_LAT HKO_LON HKO_CAT HKO_WIND HKO_PRES NEWDELHI_LAT NEWDELHI_LON NEWDELHI_GRADE NEWDELHI_WIND NEWDELHI_PRES NEWDELHI_CI NEWDELHI_DP NEWDELHI_POCI REUNION_LAT REUNION_LON REUNION_TYPE REUNION_WIND REUNION_PRES REUNION_TNUM REUNION_CI REUNION_RMW REUNION_R34_NE REUNION_R34_SE REUNION_R34_SW REUNION_R34_NW REUNION_R50_NE REUNION_R50_SE REUNION_R50_SW REUNION_R50_NW REUNION_R64_NE REUNION_R64_SE REUNION_R64_SW REUNION_R64_NW BOM_LAT BOM_LON BOM_TYPE BOM_WIND BOM_PRES BOM_TNUM BOM_CI BOM_RMW BOM_R34_NE BOM_R34_SE BOM_R34_SW BOM_R34_NW BOM_R50_NE BOM_R50_SE BOM_R50_SW BOM_R50_NW BOM_R64_NE BOM_R64_SE BOM_R64_SW BOM_R64_NW BOM_ROCI BOM_POCI BOM_EYE BOM_POS_METHOD BOM_PRES_METHOD NADI_LAT NADI_LON NADI_CAT NADI_WIND NADI_PRES WELLINGTON_LAT WELLINGTON_LON WELLINGTON_WIND WELLINGTON_PRES DS824_LAT DS824_LON DS824_STAGE DS824_WIND DS824_PRES TD9636_LAT TD9636_LON TD9636_STAGE TD9636_WIND TD9636_PRES TD9635_LAT TD9635_LON TD9635_WIND TD9635_PRES TD9635_ROCI NEUMANN_LAT NEUMANN_LON NEUMANN_CLASS NEUMANN_WIND NEUMANN_PRES MLC_LAT MLC_LON MLC_CLASS MLC_WIND MLC_PRES USA_GUST BOM_GUST BOM_GUST_PER REUNION_GUST REUNION_GUST_PER USA_SEAHGT USA_SEARAD_NE USA_SEARAD_SE USA_SEARAD_SW USA_SEARAD_NW STORM_SPEED STORM_DIR
1966036S15113 1966 10 SI WA LISA 1966-02-04 23:00:00 NR -14.7000 112.800 main 689 689 __________O___ -1 -14.7000 112.800 1 6 0
1966036S15113 1966 10 SI WA LISA 1966-02-05 00:00:00 TS -14.7997 112.785 main 699 699 O________OP___ jtwc_sh SH211966 -14.8000 112.800 -1 -14.8000 112.800 TC -14.7995 112.770 1 6 185
1966036S15113 1966 10 SI WA LISA 1966-02-05 01:00:00 TS -14.9121 112.783 1004 bom main 710 710 P_____O__PP___ SH211966 -14.9000 112.760 -1 -15.0000 113.000 1004 -14.9000 112.760 TC -14.8989 112.741 1 6 187
1966036S15113 1966 10 SI WA LISA 1966-02-05 03:00:00 TS -15.0910 112.735 main 735 727 P_____P__PP___ SH211966 -15.1000 112.685 -1 -15.0501 112.985 -15.1000 112.685 TC -15.0981 112.686 1 5 190
1966036S15113 1966 10 SI WA LISA 1966-02-05 06:00:00 TS -15.3294 112.705 main 727 708 O_____P__OP_O_ jtwc_sh SH211966 -15.4000 112.600 -1 -15.1267 112.964 -15.4000 112.600 TC -15.3975 112.622 1 -15.1000 113.100 TC 25 1001 4 183
1966036S15113 1966 10 SI WA LISA 1966-02-05 09:00:00 TS -15.5346 112.717 main 708 689 P_____P__PP_P_ SH211966 -15.7000 112.570 -1 -15.2073 112.949 -15.7000 112.570 TC -15.6983 112.593 1 -15.2000 113.088 TC 30 999 4 175
1966036S15113 1966 10 SI WA LISA 1966-02-05 11:00:00 TS -15.6662 112.743 main 689 683 P_____P__PO_P_ SH211966 -15.9000 112.583 -1 -15.2643 112.944 -15.9000 112.583 TC -15.9000 112.600 7 -15.2667 113.092 TC 33 998 4 162
1966036S15113 1966 10 SI WA LISA 1966-02-05 12:00:00 TS -15.7191 112.771 main 683 664 O_____P__OP_O_ jtwc_sh SH211966 -16.0000 112.600 -1 -15.2941 112.943 -16.0000 112.600 TC -16.0012 112.613 7 -15.3000 113.100 TC 35 998 4 163
1966036S15113 1966 10 SI WA LISA 1966-02-05 15:00:00 TS -15.9413 112.831 main 664 639 P_____P__PP_P_ SH211966 -16.3075 112.685 -1 -15.3895 112.949 -16.3075 112.685 TC -16.3017 112.686 7 -15.4000 113.150 TC 37 996 4 161
1966036S15113 1966 10 SI WA LISA 1966-02-05 18:00:00 TS -16.1398 112.922 main 639 615 O_____P__OP_O_ jtwc_sh SH211966 -16.6000 112.800 -1 -15.4959 112.970 -16.6000 112.800 TC -16.5881 112.793 7 -15.5000 113.200 TC 40 994 4 156
1966036S15113 1966 10 SI WA LISA 1966-02-05 21:00:00 TS -16.3252 113.007 main 615 600 P_____P__PP_P_ SH211966 -16.8725 112.900 -1 -15.6156 113.011 -16.8725 112.900 TC -16.8479 112.917 7 -15.5925 113.193 TC 42 992 4 154
1966036S15113 1966 10 SI WA LISA 1966-02-05 23:00:00 TS -16.4338 113.072 main 600 590 P_____P__PO_P_ SH211966 -17.0307 112.967 -1 -15.7040 113.050 -17.0307 112.967 TC -17.0000 113.000 2 -15.6610 113.191 TC 44 991 4 148
1966036S15113 1966 10 SI WA LISA 1966-02-06 00:00:00 TS -16.4781 113.111 main 590 590 O_____P__OP_O_ jtwc_sh SH211966 -17.1000 113.000 -1 -15.7510 113.074 -17.1000 113.000 TC -17.0692 113.028 2 -15.7000 113.200 TC 45 991 4 144
1966036S15113 1966 10 SI WA LISA 1966-02-06 01:00:00 TS -16.5349 113.141 990 bom main 590 575 P_____O__PP_P_ SH211966 -17.1640 113.033 -1 -15.8000 113.100 990 4 -17.1640 113.033 TC -17.1337 113.056 2 -15.7417 113.219 TC 45 990 4 150
1966036S15113 1966 10 SI WA LISA 1966-02-06 03:00:00 TS -16.6424 113.208 main 575 550 P_____P__PP_P_ SH211966 -17.2725 113.100 -1 -15.9040 113.162 -17.2725 113.100 TC -17.2502 113.112 2 -15.8350 113.278 TC 45 990 4 147
1966036S15113 1966 10 SI WA LISA 1966-02-06 06:00:00 TS -16.7932 113.317 main 550 535 O_____P__OP_O_ jtwc_sh SH211966 -17.4000 113.200 -1 -16.0726 113.274 -17.4000 113.200 TC -17.3989 113.202 2 -16.0000 113.400 TC 45 990 4 144
1966036S15113 1966 10 SI WA LISA 1966-02-06 09:00:00 TS -16.9379 113.430 main 535 520 P_____P__PP_P_ SH211966 -17.4999 113.278 -1 -16.2521 113.407 -17.4999 113.278 TC -17.5244 113.311 2 -16.2000 113.542 TC 45 990 4 141
1966036S15113 1966 10 SI WA LISA 1966-02-06 11:00:00 TS -17.0325 113.519 main 520 505 P_____P__PO_P_ SH211966 -17.5635 113.350 -1 -16.3755 113.505 -17.5635 113.350 TC -17.6000 113.400 2 -16.3364 113.647 TC 45 990 4 138
1966036S15113 1966 10 SI WA LISA 1966-02-06 12:00:00 TS -17.0816 113.570 main 505 490 O_____P__OP_O_ jtwc_sh SH211966 -17.6000 113.400 -1 -16.4378 113.556 -17.6000 113.400 TC -17.6438 113.457 2 -16.4000 113.700 TC 45 990 5 132
1966036S15113 1966 10 SI WA LISA 1966-02-06 15:00:00 TS -17.2356 113.759 main 484 460 P_____P__PP_P_ SH211966 -17.7576 113.642 -1 -16.6250 113.718 -17.7576 113.642 TC -17.7656 113.651 2 -16.5500 113.850 TC 45 990 5 129
1966036S15113 1966 10 SI WA LISA 1966-02-06 18:00:00 TS -17.3800 113.959 main 454 439 O_____P__OP_O_ jtwc_sh SH211966 -17.9000 113.900 -1 -16.8091 113.889 -17.9000 113.900 TC -17.8706 113.864 2 -16.7000 114.000 TC 45 990 4 127
1966036S15113 1966 10 SI WA LISA 1966-02-06 21:00:00 TS -17.5019 114.129 main 439 424 P_____P__PP_P_ SH211966 -17.9649 114.065 -1 -16.9853 114.065 -17.9649 114.065 TC -17.9558 114.073 2 -16.9075 114.150 TC 45 990 4 126
1966036S15113 1966 10 SI WA LISA 1966-02-06 23:00:00 TS -17.5721 114.234 main 424 419 P_____P__PO_P_ SH211966 -17.9886 114.155 -1 -17.0961 114.183 -17.9886 114.155 TC -18.0000 114.200 1 -17.0421 114.250 TC 45 990 4 124
1966036S15113 1966 10 SI WA LISA 1966-02-07 00:00:00 TS -17.6044 114.284 main 419 419 O_____P__OP_O_ jtwc_sh SH211966 -18.0000 114.200 -1 -17.1490 114.242 -18.0000 114.200 TC -18.0196 114.253 1 -17.1000 114.300 TC 45 990 4 123
1966036S15113 1966 10 SI WA LISA 1966-02-07 01:00:00 TS -17.6362 114.337 990 bom main 419 404 P_____O__PP_P_ SH211966 -18.0193 114.253 -1 -17.2000 114.300 990 -18.0193 114.253 TC -18.0363 114.303 1 -17.1447 114.350 TC 45 990 3 121
1966036S15113 1966 10 SI WA LISA 1966-02-07 03:00:00 TS -17.6924 114.440 main 404 383 P_____P__PP_P_ SH211966 -18.0575 114.357 -1 -17.2867 114.405 -18.0575 114.357 TC -18.0624 114.396 1 -17.2150 114.450 TC 45 990 3 118
1966036S15113 1966 10 SI WA LISA 1966-02-07 06:00:00 TS -17.7632 114.587 main 383 377 O_____P__OP_O_ jtwc_sh SH211966 -18.1000 114.500 -1 -17.4059 114.565 -18.1000 114.500 TC -18.0860 114.520 1 -17.3000 114.600 TC 45 990 3 116
1966036S15113 1966 10 SI WA LISA 1966-02-07 09:00:00 TS -17.8201 114.719 main 377 361 P_____P__PP_P_ SH211966 -18.1075 114.608 -1 -17.5139 114.726 -18.1075 114.608 TC -18.0969 114.630 1 -17.4000 114.743 TC 45 991 3 113
1966036S15113 1966 10 SI WA LISA 1966-02-07 11:00:00 TS -17.8528 114.805 main 361 361 P_____P__PO_P_ SH211966 -18.1026 114.669 -1 -17.5810 114.834 -18.1026 114.669 TC -18.1000 114.700 1 -17.4666 114.844 TC 45 991 3 111
1966036S15113 1966 10 SI WA LISA 1966-02-07 12:00:00 TS -17.8690 114.848 main 361 350 O_____P__OP_O_ jtwc_sh SH211966 -18.1000 114.700 -1 -17.6133 114.889 -18.1000 114.700 TC -18.1021 114.734 1 -17.5000 114.900 TC 45 992 3 111
1966036S15113 1966 10 SI WA LISA 1966-02-07 15:00:00 TS -17.9181 114.986 main 350 335 P_____P__PP_P_ SH211966 -18.1000 114.800 -1 -17.7062 115.052 -18.1000 114.800 TC -18.1024 114.830 1 -17.6000 115.100 TC 42 992 3 110
1966036S15113 1966 10 SI WA LISA 1966-02-07 18:00:00 TS -17.9656 115.123 main 335 330 O_____P__OP_O_ jtwc_sh SH211966 -18.1000 114.900 -1 -17.7951 115.217 -18.1000 114.900 TC -18.0986 114.924 1 -17.7000 115.300 TC 40 993 3 110
1966036S15113 1966 10 SI WA LISA 1966-02-07 21:00:00 TS -18.0130 115.255 main 325 325 P_____P__PP_P_ SH211966 -18.1000 114.985 -1 -17.8823 115.381 -18.1000 114.985 TC -18.0969 115.025 1 -17.8000 115.458 TC 40 993 3 110
1966036S15113 1966 10 SI WA LISA 1966-02-07 23:00:00 TS -18.0451 115.348 main 325 311 P_____P__PO_P_ SH211966 -18.1000 115.055 -1 -17.9407 115.491 -18.1000 115.055 TC -18.1000 115.100 1 -17.8667 115.553 TC 40 993 3 110
1966036S15113 1966 10 SI WA LISA 1966-02-08 00:00:00 TS -18.0613 115.399 main 311 311 O_____P__OP_O_ jtwc_sh SH211966 -18.1000 115.100 -1 -17.9702 115.545 -18.1000 115.100 TC -18.1025 115.147 1 -17.9000 115.600 TC 40 994 3 106
1966036S15113 1966 10 SI WA LISA 1966-02-08 01:00:00 TS -18.0768 115.456 995 bom main 306 302 P_____O__PP_P_ SH211966 -18.0974 115.161 -1 -18.0000 115.600 995 -18.0974 115.161 TC -18.1058 115.196 1 -17.9333 115.650 TC 40 994 4 106
1966036S15113 1966 10 SI WA LISA 1966-02-08 03:00:00 TS -18.1087 115.581 main 302 284 P_____P__PP_P_ SH211966 -18.0926 115.300 -1 -18.0619 115.733 -18.0926 115.300 TC -18.1147 115.300 1 -18.0000 115.750 TC 40 994 4 106
1966036S15113 1966 10 SI WA LISA 1966-02-08 06:00:00 TS -18.1625 115.765 main 284 281 O_____P__OP_O_ jtwc_sh SH211966 -18.1000 115.500 -1 -18.1536 115.937 -18.1000 115.500 TC -18.1359 115.461 1 -18.1000 115.900 TC 40 995 3 111
1966036S15113 1966 10 SI WA LISA 1966-02-08 09:00:00 TS -18.2303 115.915 main 281 267 P_____P__PP_P_ SH211966 -18.1425 115.615 -1 -18.2454 116.141 -18.1425 115.615 TC -18.1693 115.612 1 -18.2000 116.043 TC 37 995 3 117
1966036S15113 1966 10 SI WA LISA 1966-02-08 11:00:00 TS -18.2807 116.004 main 267 267 P_____P__PO_P_ SH211966 -18.1807 115.672 -1 -18.3073 116.273 -18.1807 115.672 TC -18.2000 115.700 1 -18.2666 116.144 TC 35 995 3 121
1966036S15113 1966 10 SI WA LISA 1966-02-08 12:00:00 TS -18.3056 116.047 main 267 251 O_____P__OP_O_ jtwc_sh SH211966 -18.2000 115.700 -1 -18.3387 116.337 -18.2000 115.700 TC -18.2121 115.733 1 -18.3000 116.200 TC 35 996 3 121
1966036S15113 1966 10 SI WA LISA 1966-02-08 15:00:00 TS -18.3775 116.178 main 251 238 P_____P__PP_P_ SH211966 -18.2425 115.808 -1 -18.4352 116.517 -18.2425 115.808 TC -18.2569 115.813 1 -18.4000 116.400 TC 35 996 3 123
1966036S15113 1966 10 SI WA LISA 1966-02-08 18:00:00 TS -18.4597 116.292 main 238 236 O_____P__OP_O_ jtwc_sh SH211966 -18.3000 115.900 -1 -18.5364 116.673 -18.3000 115.900 TC -18.3218 115.879 1 -18.5000 116.600 TC 35 997 3 134
1966036S15113 1966 10 SI WA LISA 1966-02-08 21:00:00 TS -18.5545 116.373 main 225 225 P_____P__PP_P_ SH211966 -18.3775 115.943 -1 -18.6440 116.797 -18.3775 115.943 TC -18.4161 115.947 1 -18.5925 116.780 TC 35 997 3 145
1966036S15113 1966 10 SI WA LISA 1966-02-08 23:00:00 TS -18.6316 116.417 main 225 214 P_____P__PO_P_ SH211966 -18.4526 115.975 -1 -18.7200 116.858 -18.4526 115.975 TC -18.5000 116.000 1 -18.6610 116.870 TC 35 997 3 152
1966036S15113 1966 10 SI WA LISA 1966-02-09 00:00:00 TS -18.6756 116.439 main 214 213 O_____P__OP_O_ jtwc_sh SH211966 -18.5000 116.000 -1 -18.7595 116.882 -18.5000 116.000 TC -18.5475 116.037 1 -18.7000 116.900 TC 35 997 3 161
1966036S15113 1966 10 SI WA LISA 1966-02-09 01:00:00 TS -18.7232 116.464 998 bom main 213 202 P_____O__PP_P_ SH211966 -18.5526 116.041 -1 -18.8000 116.900 998 -18.5526 116.041 TC -18.5996 116.077 1 -18.7443 116.922 TC 35 997 3 157
1966036S15113 1966 10 SI WA LISA 1966-02-09 03:00:00 TS -18.8296 116.512 main 202 179 P_____P__PP_P_ SH211966 -18.6775 116.142 -1 -18.8843 116.920 -18.6775 116.142 TC -18.7164 116.162 1 -18.8425 116.938 TC 35 997 4 162
1966036S15113 1966 10 SI WA LISA 1966-02-09 06:00:00 TS -19.0090 116.566 main 179 156 O_____P__OP_O_ jtwc_sh SH211966 -18.9000 116.300 -1 -19.0185 116.913 -18.9000 116.300 TC -18.9177 116.294 1 -19.0000 116.900 TC 35 998 4 170
1966036S15113 1966 10 SI WA LISA 1966-02-09 09:00:00 TS -19.1996 116.585 main 156 145 P_____P__PP_P_ SH211966 -19.1425 116.408 -1 -19.1606 116.866 -19.1425 116.408 TC -19.1422 116.423 1 -19.1500 116.815 TC 32 998 4 177
1966036S15113 1966 10 SI WA LISA 1966-02-09 11:00:00 TS -19.3322 116.584 main 145 134 P_____P__PO_P_ SH211966 -19.3140 116.469 -1 -19.2591 116.815 -19.3140 116.469 TC -19.3000 116.500 1 -19.2500 116.739 TC 30 998 4 178
1966036S15113 1966 10 SI WA LISA 1966-02-09 12:00:00 TS -19.3892 116.595 main 134 112 O_____P__OP_O_ jtwc_sh SH211966 -19.4000 116.500 -1 -19.3094 116.785 -19.4000 116.500 TC -19.3804 116.535 1 -19.3000 116.700 TC 30 999 4 0
1966036S15113 1966 10 SI WA LISA 1966-02-09 15:00:00 TS -19.5707 116.591 main 112 101 P_____P__PP_P_ SH211966 -19.6525 116.597 -1 -19.4636 116.677 -19.6525 116.597 TC -19.6259 116.625 1 -19.4500 116.593 TC 30 999 3 186
1966036S15113 1966 10 SI WA LISA 1966-02-09 18:00:00 TS -19.7298 116.563 main 101 90 O_____P__OP_O_ jtwc_sh SH211966 -19.9000 116.700 -1 -19.6219 116.548 -19.9000 116.700 TC -19.8764 116.698 1 -19.6000 116.500 TC 30 1000 3 198
1966036S15113 1966 10 SI WA LISA 1966-02-09 21:00:00 TS -19.8491 116.495 main 91 81 ______P___P_P_ SH211966 -1 -19.7830 116.404 TC -20.1301 116.761 1 -19.7500 116.440 TC 27 1000 3 212
1966036S15113 1966 10 SI WA LISA 1966-02-09 23:00:00 TS -19.9457 116.422 main 84 84 ______P___O_P_ SH211966 -1 -19.8914 116.303 TC -20.3000 116.800 1 -19.8500 116.412 TC 25 1000 4 246
1966036S15113 1966 10 SI WA LISA 1966-02-10 00:00:00 TS -19.9304 116.301 main 88 84 ______P_____O_ -1 -19.9457 116.252 1 -19.9000 116.400 TC 25 1001 6 255
1966036S15113 1966 10 SI WA LISA 1966-02-10 01:00:00 NR -20.0000 116.200 1002 bom main 84 ______O_______ -1 -20.0000 116.200 1002 1 TC 7 234

About IBTrACS Database

This database is a web-friendly format of International Best Track Archive for Climate Stewardship (IBTrACS), a global best track data archive curated by NOAA dating back to 1842.

Updated: 2021-10-27